sensor_id;sensor_type;location;lat;lon;timestamp;P1;durP1;ratioP1;P2;durP2;ratioP2
64387;SDS011;50709;52.648;4.764;2024-03-22T00:01:56;22.77;;;10.75;;
64387;SDS011;50709;52.648;4.764;2024-03-22T00:04:21;24.20;;;11.10;;
64387;SDS011;50709;52.648;4.764;2024-03-22T00:06:47;27.02;;;11.65;;
64387;SDS011;50709;52.648;4.764;2024-03-22T00:09:14;30.98;;;11.82;;
64387;SDS011;50709;52.648;4.764;2024-03-22T00:11:41;26.30;;;13.27;;
64387;SDS011;50709;52.648;4.764;2024-03-22T00:14:08;23.42;;;11.30;;
64387;SDS011;50709;52.648;4.764;2024-03-22T00:16:34;25.83;;;13.10;;
64387;SDS011;50709;52.648;4.764;2024-03-22T00:19:02;31.70;;;13.18;;
64387;SDS011;50709;52.648;4.764;2024-03-22T00:21:27;24.73;;;11.35;;
64387;SDS011;50709;52.648;4.764;2024-03-22T00:23:54;25.98;;;11.88;;
64387;SDS011;50709;52.648;4.764;2024-03-22T00:26:20;32.65;;;13.82;;
64387;SDS011;50709;52.648;4.764;2024-03-22T00:28:45;31.02;;;13.85;;
64387;SDS011;50709;52.648;4.764;2024-03-22T00:31:11;33.63;;;13.25;;
64387;SDS011;50709;52.648;4.764;2024-03-22T00:33:36;25.38;;;11.27;;
64387;SDS011;50709;52.648;4.764;2024-03-22T00:36:02;29.63;;;12.27;;
64387;SDS011;50709;52.648;4.764;2024-03-22T00:38:27;32.65;;;11.57;;
64387;SDS011;50709;52.648;4.764;2024-03-22T00:40:53;34.90;;;12.32;;
64387;SDS011;50709;52.648;4.764;2024-03-22T00:43:19;27.92;;;12.80;;
64387;SDS011;50709;52.648;4.764;2024-03-22T00:45:45;31.63;;;12.55;;
64387;SDS011;50709;52.648;4.764;2024-03-22T00:48:11;29.90;;;11.90;;
64387;SDS011;50709;52.648;4.764;2024-03-22T00:50:36;24.13;;;10.77;;
64387;SDS011;50709;52.648;4.764;2024-03-22T00:53:02;25.50;;;11.55;;
64387;SDS011;50709;52.648;4.764;2024-03-22T00:55:28;28.17;;;12.88;;
64387;SDS011;50709;52.648;4.764;2024-03-22T00:57:54;27.58;;;11.55;;
64387;SDS011;50709;52.648;4.764;2024-03-22T01:00:19;27.88;;;12.35;;
64387;SDS011;50709;52.648;4.764;2024-03-22T01:02:45;29.35;;;12.05;;
64387;SDS011;50709;52.648;4.764;2024-03-22T01:05:11;24.98;;;11.88;;
64387;SDS011;50709;52.648;4.764;2024-03-22T01:07:36;27.88;;;13.05;;
64387;SDS011;50709;52.648;4.764;2024-03-22T01:10:05;25.25;;;10.88;;
64387;SDS011;50709;52.648;4.764;2024-03-22T01:12:31;28.30;;;11.00;;
64387;SDS011;50709;52.648;4.764;2024-03-22T01:14:56;31.33;;;12.23;;
64387;SDS011;50709;52.648;4.764;2024-03-22T01:17:22;18.27;;;9.57;;
64387;SDS011;50709;52.648;4.764;2024-03-22T01:19:47;24.50;;;11.13;;
64387;SDS011;50709;52.648;4.764;2024-03-22T01:22:13;28.35;;;11.35;;
64387;SDS011;50709;52.648;4.764;2024-03-22T01:24:38;27.88;;;10.35;;
64387;SDS011;50709;52.648;4.764;2024-03-22T01:27:04;23.25;;;10.43;;
64387;SDS011;50709;52.648;4.764;2024-03-22T01:29:30;22.67;;;10.70;;
64387;SDS011;50709;52.648;4.764;2024-03-22T01:31:57;22.95;;;10.20;;
64387;SDS011;50709;52.648;4.764;2024-03-22T01:34:23;24.98;;;10.10;;
64387;SDS011;50709;52.648;4.764;2024-03-22T01:36:48;28.90;;;10.75;;
64387;SDS011;50709;52.648;4.764;2024-03-22T01:39:13;20.13;;;9.38;;
64387;SDS011;50709;52.648;4.764;2024-03-22T01:41:40;23.90;;;10.60;;
64387;SDS011;50709;52.648;4.764;2024-03-22T01:44:06;21.27;;;9.85;;
64387;SDS011;50709;52.648;4.764;2024-03-22T01:46:31;27.48;;;10.88;;
64387;SDS011;50709;52.648;4.764;2024-03-22T01:48:57;26.52;;;10.15;;
64387;SDS011;50709;52.648;4.764;2024-03-22T01:51:22;27.15;;;10.77;;
64387;SDS011;50709;52.648;4.764;2024-03-22T01:53:48;22.50;;;9.43;;
64387;SDS011;50709;52.648;4.764;2024-03-22T01:56:13;22.73;;;10.07;;
64387;SDS011;50709;52.648;4.764;2024-03-22T01:58:39;23.65;;;9.35;;
64387;SDS011;50709;52.648;4.764;2024-03-22T02:01:05;22.10;;;8.73;;
64387;SDS011;50709;52.648;4.764;2024-03-22T02:03:31;22.42;;;10.15;;
64387;SDS011;50709;52.648;4.764;2024-03-22T02:05:56;22.45;;;9.10;;
64387;SDS011;50709;52.648;4.764;2024-03-22T02:08:21;24.70;;;9.55;;
64387;SDS011;50709;52.648;4.764;2024-03-22T02:10:47;23.00;;;8.90;;
64387;SDS011;50709;52.648;4.764;2024-03-22T02:13:12;19.17;;;8.00;;
64387;SDS011;50709;52.648;4.764;2024-03-22T02:15:38;21.23;;;8.80;;
64387;SDS011;50709;52.648;4.764;2024-03-22T02:18:03;20.98;;;8.20;;
64387;SDS011;50709;52.648;4.764;2024-03-22T02:20:29;20.50;;;8.00;;
64387;SDS011;50709;52.648;4.764;2024-03-22T02:22:55;19.67;;;8.02;;
64387;SDS011;50709;52.648;4.764;2024-03-22T02:25:20;19.60;;;8.02;;
64387;SDS011;50709;52.648;4.764;2024-03-22T02:27:45;19.17;;;7.35;;
64387;SDS011;50709;52.648;4.764;2024-03-22T02:30:15;24.95;;;8.15;;
64387;SDS011;50709;52.648;4.764;2024-03-22T02:32:41;18.23;;;7.03;;
64387;SDS011;50709;52.648;4.764;2024-03-22T02:35:06;19.23;;;7.72;;
64387;SDS011;50709;52.648;4.764;2024-03-22T02:37:32;16.05;;;6.22;;
64387;SDS011;50709;52.648;4.764;2024-03-22T02:39:57;15.10;;;6.68;;
64387;SDS011;50709;52.648;4.764;2024-03-22T02:42:22;15.63;;;6.60;;
64387;SDS011;50709;52.648;4.764;2024-03-22T02:44:48;12.10;;;5.95;;
64387;SDS011;50709;52.648;4.764;2024-03-22T02:47:13;21.90;;;7.82;;
64387;SDS011;50709;52.648;4.764;2024-03-22T02:49:40;13.80;;;6.40;;
64387;SDS011;50709;52.648;4.764;2024-03-22T02:52:06;15.45;;;6.05;;
64387;SDS011;50709;52.648;4.764;2024-03-22T02:54:31;17.75;;;6.50;;
64387;SDS011;50709;52.648;4.764;2024-03-22T02:56:57;17.65;;;5.40;;
64387;SDS011;50709;52.648;4.764;2024-03-22T02:59:25;17.67;;;7.05;;
64387;SDS011;50709;52.648;4.764;2024-03-22T03:01:51;18.88;;;6.57;;
64387;SDS011;50709;52.648;4.764;2024-03-22T03:04:16;12.60;;;5.43;;
64387;SDS011;50709;52.648;4.764;2024-03-22T03:06:41;16.35;;;5.80;;
64387;SDS011;50709;52.648;4.764;2024-03-22T03:09:07;15.43;;;6.55;;
64387;SDS011;50709;52.648;4.764;2024-03-22T03:11:33;18.13;;;7.55;;
64387;SDS011;50709;52.648;4.764;2024-03-22T03:13:58;16.38;;;5.03;;
64387;SDS011;50709;52.648;4.764;2024-03-22T03:16:24;12.68;;;5.80;;
64387;SDS011;50709;52.648;4.764;2024-03-22T03:18:49;16.17;;;6.40;;
64387;SDS011;50709;52.648;4.764;2024-03-22T03:21:14;16.00;;;5.93;;
64387;SDS011;50709;52.648;4.764;2024-03-22T03:23:40;16.98;;;6.40;;
64387;SDS011;50709;52.648;4.764;2024-03-22T03:26:05;14.55;;;6.05;;
64387;SDS011;50709;52.648;4.764;2024-03-22T03:28:31;17.42;;;5.50;;
64387;SDS011;50709;52.648;4.764;2024-03-22T03:30:56;17.50;;;6.28;;
64387;SDS011;50709;52.648;4.764;2024-03-22T03:33:21;15.65;;;6.40;;
64387;SDS011;50709;52.648;4.764;2024-03-22T03:35:47;13.07;;;5.25;;
64387;SDS011;50709;52.648;4.764;2024-03-22T03:38:13;14.02;;;5.85;;
64387;SDS011;50709;52.648;4.764;2024-03-22T03:40:39;20.80;;;6.03;;
64387;SDS011;50709;52.648;4.764;2024-03-22T03:43:04;15.50;;;5.85;;
64387;SDS011;50709;52.648;4.764;2024-03-22T03:45:30;11.85;;;5.05;;
64387;SDS011;50709;52.648;4.764;2024-03-22T03:47:56;11.43;;;4.90;;
64387;SDS011;50709;52.648;4.764;2024-03-22T03:50:21;7.82;;;4.07;;
64387;SDS011;50709;52.648;4.764;2024-03-22T03:52:47;10.45;;;4.50;;
64387;SDS011;50709;52.648;4.764;2024-03-22T03:55:12;13.38;;;4.88;;
64387;SDS011;50709;52.648;4.764;2024-03-22T03:57:38;11.05;;;4.85;;
64387;SDS011;50709;52.648;4.764;2024-03-22T04:00:03;12.35;;;4.03;;
64387;SDS011;50709;52.648;4.764;2024-03-22T04:02:29;14.30;;;5.38;;
64387;SDS011;50709;52.648;4.764;2024-03-22T04:04:55;15.60;;;5.68;;
64387;SDS011;50709;52.648;4.764;2024-03-22T04:07:20;13.68;;;5.03;;
64387;SDS011;50709;52.648;4.764;2024-03-22T04:09:46;16.75;;;5.82;;
64387;SDS011;50709;52.648;4.764;2024-03-22T04:12:11;10.77;;;4.95;;
64387;SDS011;50709;52.648;4.764;2024-03-22T04:14:37;15.48;;;5.05;;
64387;SDS011;50709;52.648;4.764;2024-03-22T04:17:03;13.02;;;5.35;;
64387;SDS011;50709;52.648;4.764;2024-03-22T04:19:28;10.57;;;4.90;;
64387;SDS011;50709;52.648;4.764;2024-03-22T04:21:53;13.10;;;5.28;;
64387;SDS011;50709;52.648;4.764;2024-03-22T04:24:20;12.85;;;5.25;;
64387;SDS011;50709;52.648;4.764;2024-03-22T04:26:45;11.18;;;4.63;;
64387;SDS011;50709;52.648;4.764;2024-03-22T04:29:11;17.65;;;5.43;;
64387;SDS011;50709;52.648;4.764;2024-03-22T04:31:36;12.38;;;4.57;;
64387;SDS011;50709;52.648;4.764;2024-03-22T04:34:02;16.30;;;5.68;;
64387;SDS011;50709;52.648;4.764;2024-03-22T04:36:27;15.23;;;5.32;;
64387;SDS011;50709;52.648;4.764;2024-03-22T04:38:53;11.98;;;4.65;;
64387;SDS011;50709;52.648;4.764;2024-03-22T04:41:18;15.60;;;4.80;;
64387;SDS011;50709;52.648;4.764;2024-03-22T04:43:43;12.05;;;5.18;;
64387;SDS011;50709;52.648;4.764;2024-03-22T04:46:09;17.35;;;5.68;;
64387;SDS011;50709;52.648;4.764;2024-03-22T04:48:34;17.65;;;6.22;;
64387;SDS011;50709;52.648;4.764;2024-03-22T04:51:00;19.00;;;6.20;;
64387;SDS011;50709;52.648;4.764;2024-03-22T04:53:26;12.93;;;5.03;;
64387;SDS011;50709;52.648;4.764;2024-03-22T04:55:52;12.50;;;4.68;;
64387;SDS011;50709;52.648;4.764;2024-03-22T04:58:18;12.00;;;4.72;;
64387;SDS011;50709;52.648;4.764;2024-03-22T05:00:46;13.48;;;4.85;;
64387;SDS011;50709;52.648;4.764;2024-03-22T05:03:13;14.93;;;5.07;;
64387;SDS011;50709;52.648;4.764;2024-03-22T05:05:39;13.65;;;5.53;;
64387;SDS011;50709;52.648;4.764;2024-03-22T05:08:06;16.90;;;6.43;;
64387;SDS011;50709;52.648;4.764;2024-03-22T05:10:31;17.13;;;4.97;;
64387;SDS011;50709;52.648;4.764;2024-03-22T05:12:57;13.23;;;5.72;;
64387;SDS011;50709;52.648;4.764;2024-03-22T05:15:23;19.27;;;5.70;;
64387;SDS011;50709;52.648;4.764;2024-03-22T05:17:50;14.13;;;5.60;;
64387;SDS011;50709;52.648;4.764;2024-03-22T05:20:16;16.33;;;5.07;;
64387;SDS011;50709;52.648;4.764;2024-03-22T05:22:42;15.32;;;5.80;;
64387;SDS011;50709;52.648;4.764;2024-03-22T05:25:07;12.82;;;5.70;;
64387;SDS011;50709;52.648;4.764;2024-03-22T05:27:33;12.73;;;5.50;;
64387;SDS011;50709;52.648;4.764;2024-03-22T05:29:59;11.50;;;4.53;;
64387;SDS011;50709;52.648;4.764;2024-03-22T05:32:25;13.35;;;5.85;;
64387;SDS011;50709;52.648;4.764;2024-03-22T05:34:51;10.88;;;4.53;;
64387;SDS011;50709;52.648;4.764;2024-03-22T05:37:17;14.20;;;5.43;;
64387;SDS011;50709;52.648;4.764;2024-03-22T05:39:42;14.40;;;5.57;;
64387;SDS011;50709;52.648;4.764;2024-03-22T05:42:07;13.88;;;5.50;;
64387;SDS011;50709;52.648;4.764;2024-03-22T05:44:33;13.55;;;5.93;;
64387;SDS011;50709;52.648;4.764;2024-03-22T05:46:58;16.70;;;6.78;;
64387;SDS011;50709;52.648;4.764;2024-03-22T05:49:24;15.45;;;5.57;;
64387;SDS011;50709;52.648;4.764;2024-03-22T05:51:49;15.65;;;6.25;;
64387;SDS011;50709;52.648;4.764;2024-03-22T05:54:16;14.15;;;6.45;;
64387;SDS011;50709;52.648;4.764;2024-03-22T05:56:41;14.82;;;6.05;;
64387;SDS011;50709;52.648;4.764;2024-03-22T05:59:07;17.40;;;6.82;;
64387;SDS011;50709;52.648;4.764;2024-03-22T06:01:35;21.08;;;6.28;;
64387;SDS011;50709;52.648;4.764;2024-03-22T06:04:01;13.60;;;6.18;;
64387;SDS011;50709;52.648;4.764;2024-03-22T06:06:26;14.00;;;7.03;;
64387;SDS011;50709;52.648;4.764;2024-03-22T06:08:52;14.52;;;6.93;;
64387;SDS011;50709;52.648;4.764;2024-03-22T06:11:19;31.67;;;19.70;;
64387;SDS011;50709;52.648;4.764;2024-03-22T06:13:44;16.00;;;8.55;;
64387;SDS011;50709;52.648;4.764;2024-03-22T06:16:10;16.42;;;7.05;;
64387;SDS011;50709;52.648;4.764;2024-03-22T06:18:35;15.88;;;6.80;;
64387;SDS011;50709;52.648;4.764;2024-03-22T06:21:01;13.43;;;6.97;;
64387;SDS011;50709;52.648;4.764;2024-03-22T06:23:26;13.30;;;6.88;;
64387;SDS011;50709;52.648;4.764;2024-03-22T06:25:52;20.83;;;8.68;;
64387;SDS011;50709;52.648;4.764;2024-03-22T06:28:18;18.08;;;7.25;;
64387;SDS011;50709;52.648;4.764;2024-03-22T06:30:43;12.38;;;6.70;;
64387;SDS011;50709;52.648;4.764;2024-03-22T06:33:09;11.38;;;5.18;;
64387;SDS011;50709;52.648;4.764;2024-03-22T06:35:34;18.33;;;8.43;;
64387;SDS011;50709;52.648;4.764;2024-03-22T06:37:59;17.00;;;7.65;;
64387;SDS011;50709;52.648;4.764;2024-03-22T06:40:27;15.88;;;6.03;;
64387;SDS011;50709;52.648;4.764;2024-03-22T06:42:53;17.95;;;6.50;;
64387;SDS011;50709;52.648;4.764;2024-03-22T06:45:18;12.48;;;6.55;;
64387;SDS011;50709;52.648;4.764;2024-03-22T06:47:43;17.75;;;6.50;;
64387;SDS011;50709;52.648;4.764;2024-03-22T06:50:09;16.20;;;6.95;;
64387;SDS011;50709;52.648;4.764;2024-03-22T06:52:34;22.25;;;8.38;;
64387;SDS011;50709;52.648;4.764;2024-03-22T06:55:00;14.10;;;7.75;;
64387;SDS011;50709;52.648;4.764;2024-03-22T06:57:25;15.82;;;6.22;;
64387;SDS011;50709;52.648;4.764;2024-03-22T06:59:51;13.80;;;6.60;;
64387;SDS011;50709;52.648;4.764;2024-03-22T07:02:16;11.43;;;4.95;;
64387;SDS011;50709;52.648;4.764;2024-03-22T07:04:43;16.13;;;6.97;;
64387;SDS011;50709;52.648;4.764;2024-03-22T07:07:08;12.45;;;5.57;;
64387;SDS011;50709;52.648;4.764;2024-03-22T07:09:34;15.45;;;6.13;;
64387;SDS011;50709;52.648;4.764;2024-03-22T07:12:00;14.45;;;5.78;;
64387;SDS011;50709;52.648;4.764;2024-03-22T07:14:26;14.40;;;6.80;;
64387;SDS011;50709;52.648;4.764;2024-03-22T07:16:51;19.67;;;7.57;;
64387;SDS011;50709;52.648;4.764;2024-03-22T07:19:37;18.35;;;7.03;;
64387;SDS011;50709;52.648;4.764;2024-03-22T07:22:02;16.83;;;6.40;;
64387;SDS011;50709;52.648;4.764;2024-03-22T07:24:28;17.13;;;9.45;;
64387;SDS011;50709;52.648;4.764;2024-03-22T07:26:53;18.05;;;7.65;;
64387;SDS011;50709;52.648;4.764;2024-03-22T07:29:19;13.05;;;7.18;;
64387;SDS011;50709;52.648;4.764;2024-03-22T07:31:44;19.48;;;9.35;;
64387;SDS011;50709;52.648;4.764;2024-03-22T07:34:10;16.33;;;6.80;;
64387;SDS011;50709;52.648;4.764;2024-03-22T07:36:39;11.02;;;5.03;;
64387;SDS011;50709;52.648;4.764;2024-03-22T07:39:04;14.75;;;5.32;;
64387;SDS011;50709;52.648;4.764;2024-03-22T07:41:33;13.13;;;5.43;;
64387;SDS011;50709;52.648;4.764;2024-03-22T07:44:01;14.50;;;5.80;;
64387;SDS011;50709;52.648;4.764;2024-03-22T07:46:27;15.13;;;5.45;;
64387;SDS011;50709;52.648;4.764;2024-03-22T07:48:53;13.60;;;6.03;;
64387;SDS011;50709;52.648;4.764;2024-03-22T07:51:19;14.85;;;7.18;;
64387;SDS011;50709;52.648;4.764;2024-03-22T07:53:44;15.45;;;6.13;;
64387;SDS011;50709;52.648;4.764;2024-03-22T07:56:10;14.52;;;6.90;;
64387;SDS011;50709;52.648;4.764;2024-03-22T07:58:36;8.98;;;4.57;;
64387;SDS011;50709;52.648;4.764;2024-03-22T08:01:01;11.85;;;5.13;;
64387;SDS011;50709;52.648;4.764;2024-03-22T08:03:27;13.27;;;5.70;;
64387;SDS011;50709;52.648;4.764;2024-03-22T08:05:52;11.00;;;5.22;;
64387;SDS011;50709;52.648;4.764;2024-03-22T08:08:18;14.38;;;5.93;;
64387;SDS011;50709;52.648;4.764;2024-03-22T08:10:43;12.02;;;6.70;;
64387;SDS011;50709;52.648;4.764;2024-03-22T08:13:09;18.73;;;6.65;;
64387;SDS011;50709;52.648;4.764;2024-03-22T08:15:34;14.25;;;8.32;;
64387;SDS011;50709;52.648;4.764;2024-03-22T08:18:00;14.93;;;7.80;;
64387;SDS011;50709;52.648;4.764;2024-03-22T08:20:26;18.20;;;9.80;;
64387;SDS011;50709;52.648;4.764;2024-03-22T08:22:51;16.42;;;8.18;;
64387;SDS011;50709;52.648;4.764;2024-03-22T08:25:16;12.60;;;5.35;;
64387;SDS011;50709;52.648;4.764;2024-03-22T08:27:43;10.70;;;5.72;;
64387;SDS011;50709;52.648;4.764;2024-03-22T08:30:09;12.85;;;6.03;;
64387;SDS011;50709;52.648;4.764;2024-03-22T08:32:35;16.25;;;7.38;;
64387;SDS011;50709;52.648;4.764;2024-03-22T08:35:00;11.20;;;5.80;;
64387;SDS011;50709;52.648;4.764;2024-03-22T08:37:26;13.95;;;5.90;;
64387;SDS011;50709;52.648;4.764;2024-03-22T08:39:51;11.90;;;5.78;;
64387;SDS011;50709;52.648;4.764;2024-03-22T08:42:17;19.08;;;6.97;;
64387;SDS011;50709;52.648;4.764;2024-03-22T08:44:42;14.07;;;7.22;;
64387;SDS011;50709;52.648;4.764;2024-03-22T08:47:07;13.52;;;8.38;;
64387;SDS011;50709;52.648;4.764;2024-03-22T08:49:33;12.48;;;5.32;;
64387;SDS011;50709;52.648;4.764;2024-03-22T08:52:01;13.98;;;5.40;;
64387;SDS011;50709;52.648;4.764;2024-03-22T08:54:27;12.70;;;6.65;;
64387;SDS011;50709;52.648;4.764;2024-03-22T08:56:52;13.43;;;6.15;;
64387;SDS011;50709;52.648;4.764;2024-03-22T08:59:18;14.30;;;5.32;;
64387;SDS011;50709;52.648;4.764;2024-03-22T09:01:43;9.90;;;4.97;;
64387;SDS011;50709;52.648;4.764;2024-03-22T09:04:08;15.60;;;6.40;;
64387;SDS011;50709;52.648;4.764;2024-03-22T09:06:33;11.02;;;5.97;;
64387;SDS011;50709;52.648;4.764;2024-03-22T09:08:59;11.57;;;5.63;;
64387;SDS011;50709;52.648;4.764;2024-03-22T09:11:24;13.35;;;5.85;;
64387;SDS011;50709;52.648;4.764;2024-03-22T09:13:53;11.90;;;6.13;;
64387;SDS011;50709;52.648;4.764;2024-03-22T09:16:19;13.35;;;5.90;;
64387;SDS011;50709;52.648;4.764;2024-03-22T09:18:48;11.48;;;7.38;;
64387;SDS011;50709;52.648;4.764;2024-03-22T09:21:13;13.95;;;6.78;;
64387;SDS011;50709;52.648;4.764;2024-03-22T09:23:39;14.50;;;6.10;;
64387;SDS011;50709;52.648;4.764;2024-03-22T09:26:04;13.32;;;6.68;;
64387;SDS011;50709;52.648;4.764;2024-03-22T09:28:30;10.35;;;6.10;;
64387;SDS011;50709;52.648;4.764;2024-03-22T09:30:56;12.60;;;6.85;;
64387;SDS011;50709;52.648;4.764;2024-03-22T09:33:21;11.80;;;5.45;;
64387;SDS011;50709;52.648;4.764;2024-03-22T09:35:47;13.02;;;6.65;;
64387;SDS011;50709;52.648;4.764;2024-03-22T09:38:12;12.75;;;6.38;;
64387;SDS011;50709;52.648;4.764;2024-03-22T09:40:38;12.80;;;6.28;;
64387;SDS011;50709;52.648;4.764;2024-03-22T09:43:06;12.70;;;6.20;;
64387;SDS011;50709;52.648;4.764;2024-03-22T09:45:32;11.20;;;7.00;;
64387;SDS011;50709;52.648;4.764;2024-03-22T09:47:58;12.95;;;9.20;;
64387;SDS011;50709;52.648;4.764;2024-03-22T09:50:25;13.82;;;7.32;;
64387;SDS011;50709;52.648;4.764;2024-03-22T09:52:51;10.25;;;5.75;;
64387;SDS011;50709;52.648;4.764;2024-03-22T09:55:22;10.52;;;5.20;;
64387;SDS011;50709;52.648;4.764;2024-03-22T09:57:48;10.73;;;5.00;;
64387;SDS011;50709;52.648;4.764;2024-03-22T10:00:15;10.80;;;5.82;;
64387;SDS011;50709;52.648;4.764;2024-03-22T10:02:43;8.98;;;4.85;;
64387;SDS011;50709;52.648;4.764;2024-03-22T10:05:10;11.77;;;4.57;;
64387;SDS011;50709;52.648;4.764;2024-03-22T10:07:36;10.35;;;6.05;;
64387;SDS011;50709;52.648;4.764;2024-03-22T10:10:01;8.48;;;4.45;;
64387;SDS011;50709;52.648;4.764;2024-03-22T10:12:28;9.48;;;4.93;;
64387;SDS011;50709;52.648;4.764;2024-03-22T10:14:53;7.20;;;3.85;;
64387;SDS011;50709;52.648;4.764;2024-03-22T10:17:19;10.27;;;6.20;;
64387;SDS011;50709;52.648;4.764;2024-03-22T10:19:45;13.52;;;6.20;;
64387;SDS011;50709;52.648;4.764;2024-03-22T10:22:11;10.45;;;4.93;;
64387;SDS011;50709;52.648;4.764;2024-03-22T10:24:36;12.32;;;6.20;;
64387;SDS011;50709;52.648;4.764;2024-03-22T10:27:01;15.23;;;8.98;;
64387;SDS011;50709;52.648;4.764;2024-03-22T10:29:27;11.77;;;5.65;;
64387;SDS011;50709;52.648;4.764;2024-03-22T10:31:53;14.38;;;6.15;;
64387;SDS011;50709;52.648;4.764;2024-03-22T10:34:23;14.30;;;6.38;;
64387;SDS011;50709;52.648;4.764;2024-03-22T10:36:50;12.73;;;5.78;;
64387;SDS011;50709;52.648;4.764;2024-03-22T10:39:19;13.57;;;6.55;;
64387;SDS011;50709;52.648;4.764;2024-03-22T10:41:47;13.80;;;6.72;;
64387;SDS011;50709;52.648;4.764;2024-03-22T10:44:15;11.60;;;6.40;;
64387;SDS011;50709;52.648;4.764;2024-03-22T10:46:45;11.77;;;5.82;;
64387;SDS011;50709;52.648;4.764;2024-03-22T10:49:16;11.25;;;5.78;;
64387;SDS011;50709;52.648;4.764;2024-03-22T10:51:49;16.92;;;6.80;;
64387;SDS011;50709;52.648;4.764;2024-03-22T10:54:28;13.98;;;6.03;;
64387;SDS011;50709;52.648;4.764;2024-03-22T10:57:05;12.48;;;6.68;;
64387;SDS011;50709;52.648;4.764;2024-03-22T10:59:33;14.60;;;6.20;;
64387;SDS011;50709;52.648;4.764;2024-03-22T11:02:02;12.18;;;6.50;;
64387;SDS011;50709;52.648;4.764;2024-03-22T11:04:29;13.63;;;7.25;;
64387;SDS011;50709;52.648;4.764;2024-03-22T11:06:56;11.80;;;6.13;;
64387;SDS011;50709;52.648;4.764;2024-03-22T11:09:23;13.35;;;6.88;;
64387;SDS011;50709;52.648;4.764;2024-03-22T11:11:51;12.10;;;6.55;;
64387;SDS011;50709;52.648;4.764;2024-03-22T11:14:17;11.02;;;5.82;;
64387;SDS011;50709;52.648;4.764;2024-03-22T11:16:43;13.32;;;6.35;;
64387;SDS011;50709;52.648;4.764;2024-03-22T11:19:09;14.73;;;6.57;;
64387;SDS011;50709;52.648;4.764;2024-03-22T11:21:34;16.27;;;8.27;;
64387;SDS011;50709;52.648;4.764;2024-03-22T11:24:00;17.38;;;8.23;;
64387;SDS011;50709;52.648;4.764;2024-03-22T11:26:26;15.57;;;7.32;;
64387;SDS011;50709;52.648;4.764;2024-03-22T11:28:51;13.10;;;7.50;;
64387;SDS011;50709;52.648;4.764;2024-03-22T11:31:17;13.00;;;6.60;;
64387;SDS011;50709;52.648;4.764;2024-03-22T11:33:43;15.27;;;6.65;;
64387;SDS011;50709;52.648;4.764;2024-03-22T11:36:09;9.68;;;5.45;;
64387;SDS011;50709;52.648;4.764;2024-03-22T11:38:34;13.35;;;6.15;;
64387;SDS011;50709;52.648;4.764;2024-03-22T11:41:00;11.38;;;5.95;;
64387;SDS011;50709;52.648;4.764;2024-03-22T11:43:28;11.77;;;5.70;;
64387;SDS011;50709;52.648;4.764;2024-03-22T11:45:54;11.18;;;5.60;;
64387;SDS011;50709;52.648;4.764;2024-03-22T11:48:20;9.20;;;4.95;;
64387;SDS011;50709;52.648;4.764;2024-03-22T11:50:46;12.93;;;4.80;;
64387;SDS011;50709;52.648;4.764;2024-03-22T11:53:12;13.07;;;5.65;;
64387;SDS011;50709;52.648;4.764;2024-03-22T11:55:37;10.45;;;4.38;;
64387;SDS011;50709;52.648;4.764;2024-03-22T11:58:03;9.10;;;4.18;;
64387;SDS011;50709;52.648;4.764;2024-03-22T12:00:28;11.52;;;4.97;;
64387;SDS011;50709;52.648;4.764;2024-03-22T12:02:54;8.85;;;4.75;;
64387;SDS011;50709;52.648;4.764;2024-03-22T12:05:22;6.43;;;3.83;;
64387;SDS011;50709;52.648;4.764;2024-03-22T12:07:47;8.98;;;4.22;;
64387;SDS011;50709;52.648;4.764;2024-03-22T12:10:13;8.48;;;3.78;;
64387;SDS011;50709;52.648;4.764;2024-03-22T12:12:38;7.32;;;4.00;;
64387;SDS011;50709;52.648;4.764;2024-03-22T12:15:04;8.93;;;3.55;;
64387;SDS011;50709;52.648;4.764;2024-03-22T12:17:30;6.22;;;3.70;;
64387;SDS011;50709;52.648;4.764;2024-03-22T12:19:55;7.85;;;3.95;;
64387;SDS011;50709;52.648;4.764;2024-03-22T12:22:21;9.55;;;4.07;;
64387;SDS011;50709;52.648;4.764;2024-03-22T12:24:47;9.85;;;4.15;;
64387;SDS011;50709;52.648;4.764;2024-03-22T12:27:13;9.60;;;4.82;;
64387;SDS011;50709;52.648;4.764;2024-03-22T12:29:38;8.45;;;4.07;;
64387;SDS011;50709;52.648;4.764;2024-03-22T12:32:04;4.82;;;2.92;;
64387;SDS011;50709;52.648;4.764;2024-03-22T12:34:30;6.75;;;3.58;;
64387;SDS011;50709;52.648;4.764;2024-03-22T12:36:57;7.32;;;3.97;;
64387;SDS011;50709;52.648;4.764;2024-03-22T12:39:23;9.35;;;3.70;;
64387;SDS011;50709;52.648;4.764;2024-03-22T12:41:49;7.45;;;4.03;;
64387;SDS011;50709;52.648;4.764;2024-03-22T12:44:14;7.80;;;4.20;;
64387;SDS011;50709;52.648;4.764;2024-03-22T12:46:40;9.23;;;3.55;;
64387;SDS011;50709;52.648;4.764;2024-03-22T12:49:10;6.82;;;3.72;;
64387;SDS011;50709;52.648;4.764;2024-03-22T12:51:36;8.15;;;3.42;;
64387;SDS011;50709;52.648;4.764;2024-03-22T12:54:02;11.10;;;3.90;;
64387;SDS011;50709;52.648;4.764;2024-03-22T12:56:28;7.00;;;3.00;;
64387;SDS011;50709;52.648;4.764;2024-03-22T12:58:53;6.50;;;3.33;;
64387;SDS011;50709;52.648;4.764;2024-03-22T13:01:19;6.22;;;2.67;;
64387;SDS011;50709;52.648;4.764;2024-03-22T13:03:45;6.05;;;3.20;;
64387;SDS011;50709;52.648;4.764;2024-03-22T13:06:11;6.20;;;3.10;;
64387;SDS011;50709;52.648;4.764;2024-03-22T13:08:37;7.13;;;3.10;;
64387;SDS011;50709;52.648;4.764;2024-03-22T13:11:03;9.25;;;2.97;;
64387;SDS011;50709;52.648;4.764;2024-03-22T13:13:28;7.75;;;3.60;;
64387;SDS011;50709;52.648;4.764;2024-03-22T13:15:56;3.65;;;2.38;;
64387;SDS011;50709;52.648;4.764;2024-03-22T13:18:21;7.25;;;2.80;;
64387;SDS011;50709;52.648;4.764;2024-03-22T13:20:47;4.63;;;2.60;;
64387;SDS011;50709;52.648;4.764;2024-03-22T13:23:12;5.07;;;3.10;;
64387;SDS011;50709;52.648;4.764;2024-03-22T13:25:38;7.18;;;2.78;;
64387;SDS011;50709;52.648;4.764;2024-03-22T13:28:03;7.70;;;2.80;;
64387;SDS011;50709;52.648;4.764;2024-03-22T13:30:30;7.38;;;2.80;;
64387;SDS011;50709;52.648;4.764;2024-03-22T13:32:56;8.25;;;3.03;;
64387;SDS011;50709;52.648;4.764;2024-03-22T13:35:21;4.88;;;2.70;;
64387;SDS011;50709;52.648;4.764;2024-03-22T13:37:47;8.13;;;2.80;;
64387;SDS011;50709;52.648;4.764;2024-03-22T13:40:12;8.63;;;3.08;;
64387;SDS011;50709;52.648;4.764;2024-03-22T13:42:38;8.68;;;3.00;;
64387;SDS011;50709;52.648;4.764;2024-03-22T13:45:03;8.85;;;2.50;;
64387;SDS011;50709;52.648;4.764;2024-03-22T13:47:29;6.28;;;2.50;;
64387;SDS011;50709;52.648;4.764;2024-03-22T13:49:54;8.88;;;2.63;;
64387;SDS011;50709;52.648;4.764;2024-03-22T13:52:20;6.32;;;2.83;;
64387;SDS011;50709;52.648;4.764;2024-03-22T13:54:48;6.03;;;2.78;;
64387;SDS011;50709;52.648;4.764;2024-03-22T13:57:17;7.90;;;2.72;;
64387;SDS011;50709;52.648;4.764;2024-03-22T13:59:42;9.15;;;2.60;;
64387;SDS011;50709;52.648;4.764;2024-03-22T14:02:08;9.75;;;2.50;;
64387;SDS011;50709;52.648;4.764;2024-03-22T14:04:34;8.00;;;2.67;;
64387;SDS011;50709;52.648;4.764;2024-03-22T14:06:59;15.77;;;3.25;;
64387;SDS011;50709;52.648;4.764;2024-03-22T14:09:29;10.70;;;3.05;;
64387;SDS011;50709;52.648;4.764;2024-03-22T14:11:57;8.70;;;3.00;;
64387;SDS011;50709;52.648;4.764;2024-03-22T14:14:24;6.30;;;2.15;;
64387;SDS011;50709;52.648;4.764;2024-03-22T14:16:50;5.72;;;2.50;;
64387;SDS011;50709;52.648;4.764;2024-03-22T14:19:16;5.90;;;2.35;;
64387;SDS011;50709;52.648;4.764;2024-03-22T14:21:43;8.93;;;2.80;;
64387;SDS011;50709;52.648;4.764;2024-03-22T14:24:08;8.00;;;2.53;;
64387;SDS011;50709;52.648;4.764;2024-03-22T14:26:33;10.57;;;3.30;;
64387;SDS011;50709;52.648;4.764;2024-03-22T14:28:59;4.13;;;2.30;;